createdAt,value
2023-04-22T07:02:16.349Z,58.02
2023-04-22T07:06:19.663Z,56.31
2023-04-22T07:10:22.845Z,55.65
2023-04-22T07:14:27.629Z,56.18
2023-04-22T07:18:31.016Z,56.62
2023-04-22T07:22:34.261Z,56.71
2023-04-22T07:26:38.457Z,58.76
2023-04-22T07:30:41.570Z,57.54
2023-04-22T07:34:45.048Z,56.95
2023-04-22T07:38:48.403Z,56.86
2023-04-22T07:42:51.952Z,57.38
2023-04-22T07:46:56.557Z,57.92
2023-04-22T07:51:00.121Z,56.87
2023-04-22T07:55:06.335Z,56.72
2023-04-22T07:59:12.507Z,57.45
2023-04-22T08:19:56.814Z,56.66
2023-04-22T08:23:59.682Z,58.06
2023-04-22T08:28:02.756Z,59.44
2023-04-22T08:32:05.944Z,58.11
2023-04-22T08:36:11.911Z,58.71
2023-04-22T08:40:15.506Z,58.95
2023-04-22T08:44:22.866Z,58.99
2023-04-22T08:48:26.999Z,57.06
2023-04-22T08:52:31.933Z,55.56
2023-04-22T08:56:37.663Z,54.08
2023-04-22T09:00:44.855Z,53.37
2023-04-22T09:04:50.943Z,55.26
2023-04-22T09:08:55.869Z,54.63
2023-04-22T09:13:02.039Z,55.17
2023-04-22T09:17:05.606Z,54.54
2023-04-22T09:21:09.167Z,54.48
2023-04-22T09:25:17.648Z,54.90
2023-04-22T09:29:21.381Z,55.72
2023-04-22T09:33:26.842Z,55.59
2023-04-22T09:37:42.802Z,54.78
2023-04-22T09:41:58.979Z,54.41
2023-04-22T09:46:03.555Z,53.55
2023-04-22T09:50:10.564Z,53.89
2023-04-22T09:59:01.697Z,52.55
2023-04-22T10:03:06.706Z,50.27
2023-04-22T10:07:10.852Z,49.69
2023-04-22T10:11:13.879Z,47.99
2023-04-22T10:15:16.978Z,50.14
2023-04-22T10:19:25.139Z,47.84
2023-04-22T10:23:32.963Z,46.42
2023-04-22T10:27:36.334Z,46.78
2023-04-22T10:31:39.967Z,46.57
2023-04-22T10:36:15.219Z,44.41
2023-04-22T10:40:18.951Z,44.09
2023-04-22T10:44:23.214Z,43.09
2023-04-22T10:48:49.147Z,43.68
2023-04-22T10:53:04.129Z,44.14
2023-04-22T10:57:08.092Z,45.11
2023-04-22T11:01:17.545Z,45.42
2023-04-22T11:05:26.010Z,46.37
2023-04-22T11:09:29.480Z,44.97
2023-04-22T11:13:32.534Z,45.24
2023-04-22T11:17:36.752Z,46.94
2023-04-22T11:21:40.556Z,46.08
2023-04-22T11:25:43.725Z,44.01
2023-04-22T11:30:00.321Z,44.62
2023-04-22T11:34:03.301Z,43.14
2023-04-22T11:38:06.504Z,44.01
2023-04-22T11:42:09.466Z,44.97
2023-04-22T11:46:12.507Z,42.93
2023-04-22T11:50:16.032Z,44.34
2023-04-22T11:54:31.205Z,43.32
2023-04-22T11:58:38.629Z,43.74
2023-04-22T12:02:42.281Z,43.25
2023-04-22T12:06:47.112Z,43.25
2023-04-22T12:10:53.348Z,44.61
2023-04-22T12:14:58.353Z,43.78
2023-04-22T12:19:03.789Z,43.10
2023-04-22T12:23:13.516Z,42.80
2023-04-22T12:27:16.769Z,44.54
2023-04-22T12:31:20.230Z,43.91
2023-04-22T12:35:23.348Z,43.89
2023-04-22T12:39:26.542Z,46.08
2023-04-22T12:43:29.635Z,45.40
2023-04-22T12:47:33.362Z,44.90
2023-04-22T12:51:36.359Z,45.12
2023-04-22T12:55:39.625Z,46.12
2023-04-22T12:59:42.749Z,44.99
2023-04-22T13:03:46.027Z,44.39
2023-04-22T13:07:59.647Z,45.41
2023-04-22T13:12:09.505Z,43.90
2023-04-22T13:16:12.577Z,46.19
2023-04-22T13:20:16.585Z,47.47
2023-04-22T13:24:20.013Z,44.86
2023-04-22T13:28:23.083Z,45.57
2023-04-22T13:32:26.193Z,45.49
2023-04-22T13:36:29.342Z,45.08
2023-04-22T13:40:32.580Z,45.14
2023-04-22T13:44:36.288Z,44.70
2023-04-22T13:48:39.356Z,43.63
2023-04-22T13:52:42.678Z,45.10
2023-04-22T13:56:45.823Z,45.19
2023-04-22T14:00:49.070Z,44.18
2023-04-22T14:04:52.311Z,44.57
2023-04-22T14:08:55.567Z,45.47
2023-04-22T14:12:58.581Z,45.01
2023-04-22T14:17:01.662Z,44.77
2023-04-22T14:21:07.196Z,43.70
2023-04-22T14:25:10.464Z,45.69
2023-04-22T14:29:14.161Z,46.81
2023-04-22T14:33:17.427Z,46.62
2023-04-22T14:37:21.658Z,46.37
2023-04-22T14:41:25.330Z,44.28
2023-04-22T14:45:30.338Z,45.96
2023-04-22T14:49:33.398Z,44.99
2023-04-22T14:53:37.299Z,45.14
2023-04-22T14:57:40.301Z,46.86
2023-04-22T15:01:43.302Z,46.73
2023-04-22T15:05:49.420Z,45.50
2023-04-22T15:09:52.898Z,44.33
2023-04-22T15:13:55.865Z,45.47
2023-04-22T15:17:59.095Z,44.73
2023-04-22T15:22:02.391Z,44.56
2023-04-22T15:26:05.475Z,44.57
2023-04-22T15:30:10.926Z,44.60
2023-04-22T15:34:14.934Z,45.53
2023-04-22T15:38:17.924Z,46.73
2023-04-22T15:42:20.886Z,46.45
2023-04-22T15:46:23.934Z,48.36
2023-04-22T15:50:27.277Z,47.00
2023-04-22T15:54:30.456Z,48.26
2023-04-22T15:58:34.710Z,48.17
2023-04-22T16:02:38.249Z,47.60
2023-04-22T16:06:41.563Z,48.55
2023-04-22T16:10:44.903Z,47.37
2023-04-22T16:14:48.086Z,48.66
2023-04-22T16:18:51.178Z,49.34
2023-04-22T16:22:54.036Z,50.03
2023-04-22T16:26:56.986Z,51.15
2023-04-22T16:31:00.685Z,50.80
2023-04-22T16:35:04.684Z,51.96
2023-04-22T16:39:07.739Z,53.09
2023-04-22T16:43:13.006Z,54.21
2023-04-22T16:47:16.037Z,54.53
2023-04-22T16:51:18.977Z,55.43
2023-04-22T16:55:21.859Z,55.95
2023-04-22T16:59:24.795Z,56.41
2023-04-22T17:03:28.306Z,57.41
2023-04-22T17:07:31.491Z,58.12
2023-04-22T17:11:34.418Z,58.87
2023-04-22T17:15:37.299Z,59.28
2023-04-22T17:19:40.431Z,59.40
2023-04-22T17:23:43.624Z,59.74
2023-04-22T17:27:46.653Z,61.40
2023-04-22T17:31:50.739Z,62.83
2023-04-22T17:35:53.704Z,63.87
2023-04-22T17:39:56.605Z,65.27
2023-04-22T17:43:59.650Z,65.88
2023-04-22T17:48:03.041Z,65.68
2023-04-22T17:52:07.140Z,66.01
2023-04-22T17:56:10.288Z,66.48
2023-04-22T18:00:18.142Z,65.75
2023-04-22T18:04:21.262Z,66.25
2023-04-22T18:08:24.371Z,66.98
2023-04-22T18:12:30.675Z,68.45
2023-04-22T18:16:34.109Z,70.41
2023-04-22T18:20:37.297Z,70.74
2023-04-22T18:24:40.892Z,71.46
2023-04-22T18:28:44.670Z,72.12
2023-04-22T18:32:48.547Z,72.47
2023-04-22T18:36:51.797Z,73.04
2023-04-22T18:40:55.470Z,73.15
2023-04-22T18:44:58.438Z,73.60
2023-04-22T18:49:01.403Z,73.68
2023-04-22T18:53:04.842Z,73.74
2023-04-22T18:57:07.953Z,74.59
2023-04-22T19:01:11.403Z,74.93
2023-04-22T19:05:14.789Z,75.11
2023-04-22T19:09:19.471Z,75.52
2023-04-22T19:13:29.603Z,75.65
2023-04-22T19:17:34.756Z,75.80
2023-04-22T19:21:39.228Z,75.35
2023-04-22T19:25:42.696Z,75.12
2023-04-22T19:29:51.300Z,74.14
2023-04-22T19:33:54.230Z,74.19
2023-04-22T19:37:57.133Z,74.52
2023-04-22T19:42:03.698Z,75.50
2023-04-22T19:46:07.416Z,75.59
2023-04-22T19:50:11.302Z,76.08
2023-04-22T19:54:16.170Z,78.59
2023-04-22T19:58:20.138Z,79.13
2023-04-22T20:02:23.930Z,78.45
2023-04-22T20:06:28.945Z,78.17
2023-04-22T20:10:32.448Z,78.31
2023-04-22T20:14:36.235Z,78.56
2023-04-22T20:18:39.490Z,78.41
2023-04-22T20:22:44.021Z,79.45
2023-04-22T20:26:50.665Z,79.97
2023-04-22T20:30:53.861Z,80.23
2023-04-22T20:34:57.225Z,80.06
2023-04-22T20:39:05.329Z,80.03
2023-04-22T20:43:08.879Z,80.78
2023-04-22T20:47:13.889Z,81.36
2023-04-22T20:51:17.299Z,81.30
2023-04-22T20:55:21.859Z,81.33
2023-04-22T20:59:25.065Z,81.56
2023-04-22T21:03:28.995Z,80.81
2023-04-22T21:07:34.200Z,80.87
2023-04-22T21:11:38.780Z,80.72
2023-04-22T21:15:48.465Z,81.17
2023-04-22T21:19:56.874Z,81.01
2023-04-22T21:24:02.257Z,79.68
2023-04-22T21:28:05.921Z,79.08
2023-04-22T21:32:10.032Z,79.57
2023-04-22T21:36:13.774Z,80.49
2023-04-22T21:40:17.112Z,81.10
2023-04-22T21:44:20.327Z,81.83
2023-04-22T21:48:23.504Z,82.07
2023-04-22T21:52:27.200Z,81.25
2023-04-22T21:56:34.202Z,80.75
2023-04-22T22:00:38.860Z,81.01
2023-04-22T22:04:42.607Z,80.87
2023-04-22T22:08:46.980Z,80.52
2023-04-22T22:12:51.058Z,80.65
2023-04-22T22:16:59.174Z,79.89
2023-04-22T22:21:02.498Z,80.10
2023-04-22T22:25:07.874Z,80.89
2023-04-22T22:29:16.422Z,81.65
2023-04-22T22:33:19.640Z,82.32
2023-04-22T22:37:23.446Z,82.97
2023-04-22T22:41:26.714Z,83.13
2023-04-22T22:45:30.438Z,83.80
2023-04-22T22:49:34.069Z,83.83
2023-04-22T22:53:37.661Z,83.63
2023-04-22T22:57:41.240Z,83.20
2023-04-22T23:01:44.695Z,83.51
2023-04-22T23:05:50.895Z,84.73
2023-04-22T23:09:54.046Z,85.46
2023-04-22T23:13:58.721Z,86.11
2023-04-22T23:18:02.149Z,86.17
2023-04-22T23:22:07.408Z,86.35
2023-04-22T23:26:11.528Z,86.32
2023-04-22T23:30:15.368Z,86.48
2023-04-22T23:34:22.763Z,86.73
2023-04-22T23:38:25.984Z,86.96
2023-04-22T23:42:29.369Z,87.03
2023-04-22T23:46:32.737Z,87.58
2023-04-22T23:50:35.985Z,87.84
2023-04-22T23:54:40.409Z,88.35
2023-04-22T23:58:44.410Z,88.35
